Dades meteomassalio
Diari Summary for Octubre 12, 2017 Units:  Metric    English   Both
« Previous Day
Next Day »
Diari Semanal Mensual Anual Personalitzat
  Maxima: Minima: Mijana:
Temperatura: -17.8 °C -14.4 °C -9.6 °C
Rosada: -17.8 °C -15.4 °C -12.7 °C
Humitat: Humidity % 48 % 71 %
Velocitat del vent: 0 km/h 0 km/h 2.9 km/h
Racha vent: 0 km/h - -
Vent:- - West
Pressio: 0 hPa 34716.7 hPa -
Pluja: 0 mm    
Historical Graphs
 
 
Tabular Data for Octubre 12, 2017
Time Temperature Dew Point Pressure Wind Wind Speed Wind Gust Humidity Rainfall Rate (Hourly) solar Conditions
-17.8 °C -17.8 °C 0 hPa Calm     Humidity % 0 mm SolarRadiationWatts/m^2 W/m2 Conditions
00:02 -11 °C -13.2 °C 34716.7 hPa Calm     77 % 0 mm 0.0 W/m2 CLR
00:07 -11 °C -13.2 °C 34716.7 hPa Calm     77 % 0 mm 0.0 W/m2 CLR
00:08 -11 °C -13.2 °C 34716.7 hPa Calm     77 % 0 mm 0.0 W/m2 CLR
00:13 -11 °C -13.1 °C 34716.7 hPa Calm     78 % 0 mm 0.0 W/m2 CLR
00:18 -11 °C -12.9 °C 34716.7 hPa Calm     79 % 0 mm 0.0 W/m2 CLR
00:23 -11 °C -12.8 °C 34726.8 hPa Calm     80 % 0 mm 0.0 W/m2 CLR
00:28 -11.3 °C -13.2 °C 34726.8 hPa Calm     79 % 0 mm 0.0 W/m2 CLR
00:33 -11.3 °C -13.2 °C 34726.8 hPa Calm     80 % 0 mm 0.0 W/m2 CLR
00:38 -11.3 °C -13.2 °C 34726.8 hPa Calm     79 % 0 mm 0.0 W/m2 CLR
00:43 -11.3 °C -13.1 °C 34726.8 hPa Calm     81 % 0 mm 0.0 W/m2 CLR
00:48 -11.6 °C -13.4 °C 34740.4 hPa Calm     81 % 0 mm 0.0 W/m2 CLR
00:53 -11.6 °C -13.4 °C 34740.4 hPa Calm     80 % 0 mm 0.0 W/m2 CLR
00:58 -11.6 °C -13.7 °C 34740.4 hPa Calm     78 % 0 mm 0.0 W/m2 CLR
01:03 -11.9 °C -13.9 °C 34740.4 hPa Calm     78 % 0 mm 0.0 W/m2 CLR
01:08 -11.9 °C -13.8 °C 34740.4 hPa Calm     79 % 0 mm 0.0 W/m2 CLR
01:13 -11.9 °C -13.8 °C 34740.4 hPa Calm     80 % 0 mm 0.0 W/m2 CLR
01:18 -12.2 °C -14.1 °C 34740.4 hPa SSE 9 km/h 9 km/h 80 % 0 mm 0.0 W/m2 CLR
01:23 -11.9 °C -13.7 °C 34740.4 hPa Calm   5.1 km/h 81 % 0 mm 0.0 W/m2 CLR
01:28 -11.9 °C -13.7 °C 34740.4 hPa Calm     81 % 0 mm 0.0 W/m2 CLR
01:33 -11.9 °C -13.6 °C 34740.4 hPa Calm     82 % 0 mm 0.0 W/m2 CLR
01:38 -11.9 °C -13.6 °C 34740.4 hPa Calm     82 % 0 mm 0.0 W/m2 CLR
01:43 -11.9 °C -13.7 °C 34740.4 hPa Calm     81 % 0 mm 0.0 W/m2 CLR
01:49 -11.9 °C -13.7 °C 34740.4 hPa Calm     81 % 0 mm 0.0 W/m2 CLR
01:54 -12.2 °C -13.9 °C 34740.4 hPa Calm     81 % 0 mm 0.0 W/m2 CLR
01:59 -12.2 °C -13.9 °C 34740.4 hPa Calm     81 % 0 mm 0.0 W/m2 CLR
02:04 -12.6 °C -14.2 °C 34740.4 hPa SSE 5.1 km/h 5.1 km/h 82 % 0 mm 0.0 W/m2 CLR
02:09 -12.6 °C -14.1 °C 34740.4 hPa Calm     83 % 0 mm 0.0 W/m2 CLR
02:14 -12.6 °C -14.2 °C 34740.4 hPa Calm     82 % 0 mm 0.0 W/m2 CLR
02:24 -12.8 °C -14.4 °C 34750.5 hPa Calm     82 % 0 mm 0.0 W/m2 CLR
02:29 -12.8 °C -14.3 °C 34750.5 hPa Calm     83 % 0 mm 0.0 W/m2 CLR
02:34 -12.8 °C -14.3 °C 34750.5 hPa Calm     83 % 0 mm 0.0 W/m2 CLR
02:39 -12.8 °C -14.3 °C 34740.4 hPa ESE 9 km/h 9 km/h 83 % 0 mm 0.0 W/m2 CLR
02:44 -12.8 °C -14.3 °C 34750.5 hPa Calm     83 % 0 mm 0.0 W/m2 CLR
02:49 -12.8 °C -14.4 °C 34750.5 hPa Calm     82 % 0 mm 0.0 W/m2 CLR
02:54 -13.2 °C -14.8 °C 34740.4 hPa Calm     82 % 0 mm 0.0 W/m2 CLR
02:59 -13.2 °C -14.8 °C 34750.5 hPa Calm     82 % 0 mm 0.0 W/m2 CLR
03:09 -13.2 °C -14.7 °C 34750.5 hPa Calm     83 % 0 mm 0.0 W/m2 CLR
03:14 -13.2 °C -14.6 °C 34750.5 hPa Calm     84 % 0 mm 0.0 W/m2 CLR
03:19 -13.2 °C -14.7 °C 34750.5 hPa ESE 9 km/h 9 km/h 83 % 0 mm 0.0 W/m2 CLR
03:24 -13.4 °C -15.1 °C 34740.4 hPa Calm     82 % 0 mm 0.0 W/m2 CLR
03:29 -13.4 °C -15.1 °C 34740.4 hPa Calm     82 % 0 mm 0.0 W/m2 CLR
03:34 -13.4 °C -15.1 °C 34750.5 hPa ESE 5.1 km/h   82 % 0 mm 0.0 W/m2 CLR
03:39 -13.4 °C -14.9 °C 34750.5 hPa Calm     83 % 0 mm 0.0 W/m2 CLR
03:44 -13.4 °C -14.9 °C 34750.5 hPa Calm     83 % 0 mm 0.0 W/m2 CLR
03:49 -13.4 °C -15.1 °C 34750.5 hPa Calm     82 % 0 mm 0.0 W/m2 CLR
03:54 -13.4 °C -14.9 °C 34750.5 hPa Calm     83 % 0 mm 0.0 W/m2 CLR
03:59 -13.4 °C -14.9 °C 34750.5 hPa Calm     83 % 0 mm 0.0 W/m2 CLR
04:04 -13.4 °C -14.9 °C 34750.5 hPa Calm     84 % 0 mm 0.0 W/m2 CLR
04:09 -13.4 °C -14.9 °C 34750.5 hPa Calm     84 % 0 mm 0.0 W/m2 CLR
04:14 -13.4 °C -14.9 °C 34750.5 hPa Calm     83 % 0 mm 0.0 W/m2 CLR
04:19 -13.4 °C -14.9 °C 34750.5 hPa Calm     83 % 0 mm 0.0 W/m2 CLR
04:24 -13.4 °C -14.9 °C 34750.5 hPa Calm     84 % 0 mm 0.0 W/m2 CLR
04:29 -13.4 °C -14.9 °C 34750.5 hPa Calm     84 % 0 mm 0.0 W/m2 CLR
04:39 -13.4 °C -14.8 °C 34750.5 hPa SSE 11.9 km/h 11.9 km/h 85 % 0 mm 0.0 W/m2 CLR
04:44 -13.4 °C -14.8 °C 34750.5 hPa Calm     85 % 0 mm 0.0 W/m2 CLR
04:49 -13.4 °C -14.9 °C 34750.5 hPa Calm     84 % 0 mm 0.0 W/m2 CLR
04:54 -13.4 °C -14.9 °C 34760.7 hPa Calm     84 % 0 mm 0.0 W/m2 CLR
04:59 -13.4 °C -14.9 °C 34750.5 hPa Calm     84 % 0 mm 0.0 W/m2 CLR
05:04 -13.4 °C -14.8 °C 34760.7 hPa Calm     85 % 0 mm 0.0 W/m2 CLR
05:09 -13.4 °C -14.8 °C 34760.7 hPa Calm     85 % 0 mm 0.0 W/m2 CLR
05:14 -13.4 °C -14.8 °C 34760.7 hPa Calm     85 % 0 mm 0.0 W/m2 CLR
05:19 -13.8 °C -15.1 °C 34760.7 hPa Calm     85 % 0 mm 0.0 W/m2 CLR
05:21 -13.8 °C -15.1 °C 34760.7 hPa Calm     85 % 0 mm 0.0 W/m2 CLR
05:22 -13.8 °C -15.1 °C 34760.7 hPa Calm     85 % 0 mm 0.0 W/m2 CLR
05:27 -13.8 °C -15.1 °C 34760.7 hPa Calm     85 % 0 mm 0.0 W/m2 CLR
05:32 -13.8 °C -15.1 °C 34760.7 hPa Calm     85 % 0 mm 0.0 W/m2 CLR
05:37 -13.8 °C -14.9 °C 34760.7 hPa Calm     86 % 0 mm 0.0 W/m2 CLR
05:42 -13.8 °C -14.9 °C 34760.7 hPa Calm     86 % 0 mm 0.0 W/m2 CLR
05:47 -13.8 °C -14.9 °C 34774.2 hPa Calm     86 % 0 mm 0.0 W/m2 CLR
05:52 -13.8 °C -14.9 °C 34774.2 hPa South 9 km/h 9 km/h 86 % 0 mm 0.0 W/m2 CLR
05:57 -13.4 °C -14.6 °C 34774.2 hPa SSE 10.3 km/h 10.3 km/h 87 % 0 mm 0.0 W/m2 CLR
06:02 -13.8 °C -14.9 °C 34774.2 hPa Calm     87 % 0 mm 0.0 W/m2 CLR
06:08 -13.8 °C -14.9 °C 34774.2 hPa Calm     87 % 0 mm 0.0 W/m2 CLR
06:13 -13.8 °C -14.9 °C 34774.2 hPa Calm     86 % 0 mm 0.0 W/m2 CLR
06:18 -13.8 °C -14.9 °C 34774.2 hPa Calm     86 % 0 mm 0.0 W/m2 CLR
06:23 -13.8 °C -14.9 °C 34774.2 hPa Calm     86 % 0 mm 0.0 W/m2 CLR
06:28 -14.1 °C -15.2 °C 34774.2 hPa SSE 3.1 km/h   87 % 0 mm 0.0 W/m2 CLR
06:33 -14.1 °C -15.2 °C 34774.2 hPa SSE 9 km/h 9 km/h 87 % 0 mm 0.0 W/m2 CLR
06:38 -14.1 °C -15.2 °C 34774.2 hPa Calm     87 % 0 mm 0.0 W/m2 CLR
06:43 -14.1 °C -15.2 °C 34774.2 hPa SE 2.6 km/h 2.6 km/h 87 % 0 mm 0.0 W/m2 CLR
06:48 -14.1 °C -15.2 °C 34774.2 hPa SE 9 km/h 9 km/h 87 % 0 mm 0.0 W/m2 CLR
06:53 -14.1 °C -15.2 °C 34774.2 hPa SE 6 km/h 6 km/h 87 % 0 mm 0.0 W/m2 CLR
06:58 -14.1 °C -15.2 °C 34774.2 hPa Calm     87 % 0 mm 0.0 W/m2 CLR
07:03 -14.1 °C -15.2 °C 34774.2 hPa Calm     87 % 0 mm 0.0 W/m2 CLR
07:08 -14.1 °C -15.2 °C 34774.2 hPa Calm     87 % 0 mm 0.0 W/m2 CLR
07:13 -14.1 °C -15.2 °C 34784.4 hPa Calm     87 % 0 mm 0.0 W/m2 CLR
07:18 -14.1 °C -15.2 °C 34784.4 hPa Calm     87 % 0 mm 0.0 W/m2 CLR
07:23 -14.1 °C -15.2 °C 34784.4 hPa Calm     87 % 0 mm 0.0 W/m2 CLR
07:28 -14.1 °C -15.2 °C 34784.4 hPa Calm     87 % 0 mm 0.0 W/m2 CLR
07:30 -14.1 °C -15.2 °C 34784.4 hPa Calm     87 % 0 mm 0.0 W/m2 CLR
07:35 -14.1 °C -15.2 °C 34784.4 hPa Calm     87 % 0 mm 0.0 W/m2 CLR
07:40 -14.1 °C -15.2 °C 34797.9 hPa Calm     87 % 0 mm 0.0 W/m2 CLR
07:45 -14.1 °C -15.2 °C 34797.9 hPa Calm     87 % 0 mm 0.0 W/m2 CLR
07:50 -14.1 °C -15.1 °C 34797.9 hPa Calm     88 % 0 mm 0.0 W/m2 CLR
07:55 -14.1 °C -15.1 °C 34797.9 hPa Calm     88 % 0 mm 0.0 W/m2 CLR
08:00 -14.1 °C -15 °C 34797.9 hPa Calm     89 % 0 mm 0.0 W/m2 OVC
08:05 -14.4 °C -15.3 °C 34797.9 hPa Calm     89 % 0 mm 0.0 W/m2 OVC
08:10 -14.4 °C -15.4 °C 34797.9 hPa Calm     88 % 0 mm 5.0 W/m2 OVC
08:15 -14.4 °C -15.4 °C 34808.1 hPa SE 3.1 km/h   88 % 0 mm 9.0 W/m2 BKN
08:20 -14.4 °C -15.4 °C 34808.1 hPa Calm     88 % 0 mm 12.0 W/m2 BKN
08:25 -14.4 °C -15.4 °C 34808.1 hPa Calm     88 % 0 mm 16.0 W/m2 BKN
08:30 -14.4 °C -15.4 °C 34808.1 hPa Calm     88 % 0 mm 19.0 W/m2 BKN
08:35 -14.4 °C -15.3 °C 34808.1 hPa Calm     89 % 0 mm 25.0 W/m2 BKN
08:40 -14.4 °C -15.4 °C 34818.2 hPa Calm     88 % 0 mm 32.0 W/m2 BKN
08:45 -14.4 °C -15.4 °C 34818.2 hPa Calm     88 % 0 mm 40.0 W/m2 BKN
08:50 -14.4 °C -15.4 °C 34818.2 hPa Calm     88 % 0 mm 49.0 W/m2 SCT
08:55 -14.1 °C -15.1 °C 34818.2 hPa Calm     88 % 0 mm 62.0 W/m2 SCT
09:00 -14.1 °C -15.1 °C 34818.2 hPa Calm     88 % 0 mm 63.0 W/m2 SCT
09:05 -14.1 °C -15.1 °C 34831.8 hPa Calm     88 % 0 mm 84.0 W/m2 FEW
09:10 -14.1 °C -15.2 °C 34831.8 hPa Calm     87 % 0 mm 97.0 W/m2 FEW
09:15 -13.8 °C -14.9 °C 34831.8 hPa Calm     87 % 0 mm 114.0 W/m2 CLR
09:20 -13.4 °C -14.7 °C 34831.8 hPa Calm     86 % 0 mm 130.0 W/m2 CLR
09:25 -13.4 °C -14.8 °C 34841.9 hPa Calm     85 % 0 mm 113.0 W/m2 CLR
09:30 -13.2 °C -14.6 °C 34841.9 hPa Calm     84 % 0 mm 158.0 W/m2 CLR
09:35 -13.2 °C -14.7 °C 34841.9 hPa Calm     83 % 0 mm 156.0 W/m2 CLR
09:40 -12.8 °C -14.3 °C 34841.9 hPa Calm     83 % 0 mm 197.0 W/m2 CLR
09:45 -12.8 °C -14.4 °C 34841.9 hPa Calm     82 % 0 mm 213.0 W/m2 CLR
09:50 -12.6 °C -14.3 °C 34841.9 hPa Calm     81 % 0 mm 229.0 W/m2 CLR
09:55 -12.6 °C -14.3 °C 34841.9 hPa Calm     80 % 0 mm 241.0 W/m2 CLR
10:05 -11.9 °C -13.9 °C 34841.9 hPa Calm     78 % 0 mm 271.0 W/m2 CLR
10:10 -11.9 °C -14.1 °C 34841.9 hPa Calm     77 % 0 mm 287.0 W/m2 CLR
10:15 -11.6 °C -13.8 °C 34841.9 hPa Calm     76 % 0 mm 297.0 W/m2 CLR
10:20 -11.3 °C -13.4 °C 34852.1 hPa Calm     77 % 0 mm 313.0 W/m2 CLR
10:25 -11.3 °C -13.4 °C 34841.9 hPa Calm     77 % 0 mm 327.0 W/m2 CLR
10:30 -10.7 °C -12.7 °C 34841.9 hPa Calm     79 % 0 mm 343.0 W/m2 CLR
10:35 -10.4 °C -12.3 °C 34852.1 hPa WSW 10.3 km/h 10.3 km/h 79 % 0 mm 359.0 W/m2 CLR
10:46 -9.8 °C -11.2 °C 34841.9 hPa SW 26.9 km/h 26.9 km/h 84 % 0 mm 378.0 W/m2 CLR
10:51 -9.4 °C -10.9 °C 34841.9 hPa WSW 20.9 km/h 20.9 km/h 84 % 0 mm 394.0 W/m2 CLR
10:56 -9.1 °C -10.6 °C 34852.1 hPa WSW 17.9 km/h 17.9 km/h 84 % 0 mm 404.0 W/m2 CLR
11:01 -8.8 °C -10.4 °C 34852.1 hPa West 20.9 km/h 20.9 km/h 83 % 0 mm 406.0 W/m2 CLR
11:06 -8.8 °C -10.3 °C 34841.9 hPa WSW 15 km/h 15 km/h 84 % 0 mm 425.0 W/m2 CLR
11:11 -8.8 °C -10.3 °C 34852.1 hPa SW 15 km/h 15 km/h 84 % 0 mm 441.0 W/m2 CLR
11:16 -8.8 °C -10.4 °C 34852.1 hPa WSW 17.9 km/h 17.9 km/h 83 % 0 mm 450.0 W/m2 CLR
11:21 -8.5 °C -10.1 °C 34852.1 hPa West 17.9 km/h 17.9 km/h 83 % 0 mm 461.0 W/m2 CLR
11:26 -8.2 °C -9.9 °C 34852.1 hPa WSW 15 km/h 15 km/h 82 % 0 mm 471.0 W/m2 CLR
11:31 -8.2 °C -10.1 °C 34852.1 hPa West 17.9 km/h 17.9 km/h 81 % 0 mm 482.0 W/m2 CLR
11:36 -8.2 °C -10.2 °C 34852.1 hPa West 9 km/h 9 km/h 80 % 0 mm 494.0 W/m2 CLR
11:41 -8.2 °C -10.2 °C 34852.1 hPa SW 9 km/h 9 km/h 79 % 0 mm 503.0 W/m2 CLR
11:46 -8.2 °C -10.2 °C 34841.9 hPa West 18.2 km/h 18.2 km/h 79 % 0 mm 513.0 W/m2 CLR
11:51 -7.9 °C -10.2 °C 34852.1 hPa West 6 km/h   77 % 0 mm 524.0 W/m2 CLR
11:57 -7.9 °C -10.3 °C 34841.9 hPa Calm     76 % 0 mm 533.0 W/m2 CLR
12:02 -7.6 °C -10 °C 34852.1 hPa Calm     76 % 0 mm 541.0 W/m2 CLR
12:07 -7.6 °C -10.3 °C 34841.9 hPa Calm     73 % 0 mm 548.0 W/m2 CLR
12:12 -7.6 °C -10.4 °C 34841.9 hPa WSW 6 km/h 6 km/h 72 % 0 mm 557.0 W/m2 CLR
12:22 -7 °C -9.9 °C 34841.9 hPa WNW 6 km/h 6 km/h 71 % 0 mm 571.0 W/m2 CLR
12:27 -7 °C -10.1 °C 34841.9 hPa Calm     70 % 0 mm 578.0 W/m2 CLR
12:32 -7 °C -10.2 °C 34841.9 hPa Calm     69 % 0 mm 582.0 W/m2 CLR
12:37 -7 °C -10.2 °C 34841.9 hPa WNW 15.6 km/h 15.6 km/h 69 % 0 mm 589.0 W/m2 CLR
12:42 -6.7 °C -10.1 °C 34841.9 hPa Calm     68 % 0 mm 594.0 W/m2 CLR
12:47 -6.7 °C -10.2 °C 34841.9 hPa Calm     67 % 0 mm 601.0 W/m2 CLR
12:52 -6.3 °C -10 °C 34841.9 hPa NNW 3.1 km/h 3.1 km/h 66 % 0 mm 606.0 W/m2 CLR
12:57 -6.1 °C -10.1 °C 34841.9 hPa Calm     63 % 0 mm 610.0 W/m2 CLR
13:02 -6.1 °C -9.9 °C 34831.8 hPa Calm     64 % 0 mm 617.0 W/m2 CLR
13:12 -5.7 °C -10.1 °C 34831.8 hPa Calm     61 % 0 mm 626.0 W/m2 CLR
13:17 -5.4 °C -9.9 °C 34831.8 hPa Calm     60 % 0 mm 628.0 W/m2 CLR
13:22 -5.7 °C -10.4 °C 34831.8 hPa Calm     59 % 0 mm 633.0 W/m2 CLR
13:32 -5.4 °C -9.9 °C 34831.8 hPa NNW 2.6 km/h 2.6 km/h 60 % 0 mm 633.0 W/m2 CLR
13:37 -5.4 °C -10.1 °C 34818.2 hPa Calm     59 % 0 mm 635.0 W/m2 CLR
13:42 -5.1 °C -10.1 °C 34818.2 hPa Calm     57 % 0 mm 636.0 W/m2 CLR
13:47 -4.8 °C -9.8 °C 34818.2 hPa Calm     57 % 0 mm 640.0 W/m2 CLR
13:52 -4.8 °C -9.8 °C 34818.2 hPa Calm     57 % 0 mm 636.0 W/m2 CLR
13:57 -4.5 °C -9.7 °C 34808.1 hPa Calm     56 % 0 mm 635.0 W/m2 CLR
14:02 -4.5 °C -9.7 °C 34808.1 hPa Calm     56 % 0 mm 635.0 W/m2 CLR
14:07 -4.5 °C -9.8 °C 34808.1 hPa Calm     55 % 0 mm 635.0 W/m2 CLR
14:12 -4.8 °C -10.3 °C 34808.1 hPa Calm     54 % 0 mm 631.0 W/m2 CLR
14:17 -4.5 °C -10.2 °C 34808.1 hPa NNW 7.7 km/h 7.7 km/h 53 % 0 mm 628.0 W/m2 CLR
14:22 -4.5 °C -10.2 °C 34797.9 hPa North 7.7 km/h 7.7 km/h 53 % 0 mm 624.0 W/m2 CLR
14:27 -4.5 °C -10.3 °C 34797.9 hPa West 3.1 km/h 3.1 km/h 52 % 0 mm 621.0 W/m2 CLR
14:32 -4.2 °C -10.1 °C 34797.9 hPa Calm     52 % 0 mm 619.0 W/m2 CLR
14:37 -4.2 °C -10.5 °C 34784.4 hPa Calm     49 % 0 mm 613.0 W/m2 CLR
14:42 -4.2 °C -10.7 °C 34784.4 hPa Calm     48 % 0 mm 610.0 W/m2 CLR
14:47 -4.5 °C -10.8 °C 34784.4 hPa Calm     49 % 0 mm 605.0 W/m2 CLR
14:52 -4.2 °C -10.5 °C 34784.4 hPa NW 15 km/h 15 km/h 49 % 0 mm 598.0 W/m2 CLR
14:57 -3.9 °C -10.1 °C 34784.4 hPa WNW 3.1 km/h   50 % 0 mm 591.0 W/m2 CLR
14:58 -3.9 °C -10.1 °C 34784.4 hPa WNW 3.1 km/h   50 % 0 mm 591.0 W/m2 CLR
15:03 -3.9 °C -10.1 °C 34784.4 hPa WNW 3.1 km/h   50 % 0 mm 582.0 W/m2 CLR
15:08 -3.9 °C -10.1 °C 34774.2 hPa Calm     50 % 0 mm 577.0 W/m2 CLR
15:13 -3.6 °C -9.9 °C 34784.4 hPa NW 3.1 km/h 3.1 km/h 49 % 0 mm 570.0 W/m2 CLR
15:18 -3.6 °C -10.2 °C 34784.4 hPa NNW 5.1 km/h 5.1 km/h 48 % 0 mm 563.0 W/m2 CLR
15:23 -3.9 °C -10.2 °C 34774.2 hPa North 11.9 km/h 11.9 km/h 49 % 0 mm 555.0 W/m2 CLR
15:28 -4.2 °C -10.7 °C 34774.2 hPa NW 6 km/h 6 km/h 48 % 0 mm 548.0 W/m2 CLR
15:33 -3.9 °C -10.4 °C 34774.2 hPa Calm     48 % 0 mm 540.0 W/m2 CLR
15:38 -3.9 °C -10.4 °C 34774.2 hPa Calm     48 % 0 mm 533.0 W/m2 CLR
15:48 -3.9 °C -10.2 °C 34774.2 hPa WNW 3.1 km/h 3.1 km/h 49 % 0 mm 520.0 W/m2 CLR
15:53 -3.9 °C -10.2 °C 34760.7 hPa NNW 15 km/h 15 km/h 49 % 0 mm 506.0 W/m2 CLR
15:58 -3.9 °C -10.2 °C 34760.7 hPa North 17.9 km/h 17.9 km/h 49 % 0 mm 494.0 W/m2 CLR
16:03 -3.9 °C -10.2 °C 34760.7 hPa WNW 9 km/h 9 km/h 49 % 0 mm 485.0 W/m2 CLR
16:08 -3.9 °C -10.2 °C 34760.7 hPa NW 9 km/h 9 km/h 49 % 0 mm 475.0 W/m2 CLR
16:13 -3.6 °C -9.9 °C 34760.7 hPa West 15.6 km/h 15.6 km/h 49 % 0 mm 468.0 W/m2 CLR
16:18 -3.9 °C -10.1 °C 34760.7 hPa NNW 17.9 km/h 17.9 km/h 50 % 0 mm 452.0 W/m2 CLR
16:23 -3.6 °C -9.8 °C 34760.7 hPa NNW 15 km/h 15 km/h 50 % 0 mm 439.0 W/m2 CLR
16:24 -3.6 °C -9.9 °C 34760.7 hPa NW 9 km/h 9 km/h 49 % 0 mm 438.0 W/m2 CLR
16:29 -3.6 °C -9.9 °C 34760.7 hPa NW 6 km/h 6 km/h 49 % 0 mm 425.0 W/m2 CLR
16:34 -3.6 °C -9.9 °C 34760.7 hPa NW 11.9 km/h 11.9 km/h 49 % 0 mm 417.0 W/m2 CLR
16:39 -3.6 °C -9.9 °C 34760.7 hPa West 17.9 km/h 17.9 km/h 49 % 0 mm 403.0 W/m2 CLR
16:44 -3.6 °C -9.8 °C 34750.5 hPa NNW 9 km/h 9 km/h 50 % 0 mm 390.0 W/m2 CLR
16:49 -3.6 °C -9.8 °C 34750.5 hPa West 10.3 km/h 10.3 km/h 50 % 0 mm 376.0 W/m2 CLR
16:54 -3.6 °C -9.9 °C 34750.5 hPa NNW 12.9 km/h 12.9 km/h 49 % 0 mm 364.0 W/m2 CLR
16:59 -3.6 °C -9.8 °C 34750.5 hPa NW 12.9 km/h 12.9 km/h 50 % 0 mm 350.0 W/m2 CLR
17:04 -3.6 °C -9.8 °C 34760.7 hPa WNW 6 km/h   50 % 0 mm 334.0 W/m2 CLR
17:09 -3.6 °C -9.9 °C 34760.7 hPa WNW 15 km/h 15 km/h 49 % 0 mm 322.0 W/m2 CLR
17:14 -3.6 °C -9.9 °C 34750.5 hPa WNW 15 km/h 15 km/h 49 % 0 mm 308.0 W/m2 CLR
17:19 -3.6 °C -9.8 °C 34750.5 hPa NW 12.9 km/h 12.9 km/h 50 % 0 mm 294.0 W/m2 CLR
17:24 -3.6 °C -9.9 °C 34750.5 hPa NW 17.9 km/h 17.9 km/h 49 % 0 mm 278.0 W/m2 CLR
17:29 -3.6 °C -9.9 °C 34750.5 hPa NNW 15 km/h 15 km/h 49 % 0 mm 262.0 W/m2 CLR
17:30 -3.6 °C -9.9 °C 34750.5 hPa NNW 15 km/h 15 km/h 49 % 0 mm 262.0 W/m2 CLR
17:35 -3.6 °C -9.9 °C 34750.5 hPa NNW 11.9 km/h 11.9 km/h 49 % 0 mm 246.0 W/m2 CLR
17:40 -3.9 °C -10.2 °C 34750.5 hPa NW 9 km/h   49 % 0 mm 234.0 W/m2 CLR
17:45 -3.9 °C -10.2 °C 34750.5 hPa WNW 12.9 km/h 12.9 km/h 49 % 0 mm 218.0 W/m2 CLR
17:50 -3.9 °C -10.2 °C 34750.5 hPa NNW 11.9 km/h 11.9 km/h 49 % 0 mm 202.0 W/m2 CLR
17:55 -3.9 °C -10.2 °C 34750.5 hPa Calm     49 % 0 mm 185.0 W/m2 CLR
18:00 -3.9 °C -10.2 °C 34750.5 hPa Calm     49 % 0 mm 167.0 W/m2 CLR
18:05 -4.2 °C -10.5 °C 34760.7 hPa West 17.9 km/h 17.9 km/h 49 % 0 mm 153.0 W/m2 CLR
18:10 -4.2 °C -10.5 °C 34760.7 hPa WNW 10.3 km/h 10.3 km/h 49 % 0 mm 134.0 W/m2 CLR
18:15 -4.5 °C -10.8 °C 34760.7 hPa WNW 9 km/h 9 km/h 49 % 0 mm 118.0 W/m2 CLR
18:20 -4.5 °C -10.8 °C 34760.7 hPa WNW 2.6 km/h 2.6 km/h 49 % 0 mm 104.0 W/m2 CLR
18:25 -4.8 °C -11.1 °C 34760.7 hPa Calm     49 % 0 mm 91.0 W/m2 CLR
18:30 -4.8 °C -10.9 °C 34760.7 hPa Calm     50 % 0 mm 77.0 W/m2 FEW
18:35 -5.1 °C -11.2 °C 34760.7 hPa NW 9 km/h 9 km/h 50 % 0 mm 65.0 W/m2 FEW
18:40 -5.4 °C -11.5 °C 34760.7 hPa Calm     50 % 0 mm 51.0 W/m2 SCT
18:45 -5.7 °C -11.6 °C 34760.7 hPa Calm     51 % 0 mm 46.0 W/m2 SCT
18:50 -6.1 °C -11.9 °C 34760.7 hPa WNW 5.1 km/h 5.1 km/h 51 % 0 mm 35.0 W/m2 BKN
18:55 -6.1 °C -11.7 °C 34760.7 hPa Calm     52 % 0 mm 26.0 W/m2 BKN
19:00 -6.3 °C -12.1 °C 34760.7 hPa Calm     52 % 0 mm 21.0 W/m2 BKN
19:05 -6.7 °C -12.3 °C 34760.7 hPa Calm     52 % 0 mm 18.0 W/m2 BKN
19:10 -7 °C -12.4 °C 34760.7 hPa Calm     53 % 0 mm 12.0 W/m2 BKN
19:15 -7.3 °C -12.6 °C 34760.7 hPa Calm     54 % 0 mm 9.0 W/m2 BKN
19:20 -7.6 °C -12.9 °C 34774.2 hPa Calm     54 % 0 mm 5.0 W/m2 OVC
19:25 -7.6 °C -12.7 °C 34774.2 hPa Calm     55 % 0 mm 0.0 W/m2 OVC
19:30 -7.9 °C -12.8 °C 34774.2 hPa Calm     56 % 0 mm 0.0 W/m2 OVC
19:35 -8.2 °C -13.1 °C 34774.2 hPa Calm     56 % 0 mm 0.0 W/m2 CLR
19:40 -8.2 °C -13 °C 34774.2 hPa Calm     57 % 0 mm 0.0 W/m2 CLR
19:45 -8.5 °C -13.2 °C 34774.2 hPa Calm     58 % 0 mm 0.0 W/m2 CLR
19:50 -8.5 °C -13 °C 34774.2 hPa Calm     59 % 0 mm 0.0 W/m2 CLR
19:55 -8.5 °C -13 °C 34774.2 hPa Calm     59 % 0 mm 0.0 W/m2 CLR
20:00 -8.5 °C -13 °C 34774.2 hPa Calm     59 % 0 mm 0.0 W/m2 CLR
20:05 -8.5 °C -12.8 °C 34774.2 hPa Calm     60 % 0 mm 0.0 W/m2 CLR
20:10 -8.5 °C -12.7 °C 34774.2 hPa Calm     61 % 0 mm 0.0 W/m2 CLR
20:15 -8.2 °C -12.3 °C 34774.2 hPa Calm     62 % 0 mm 0.0 W/m2 CLR
20:20 -8.2 °C -12.2 °C 34784.4 hPa Calm     63 % 0 mm 0.0 W/m2 CLR
20:25 -7.9 °C -11.7 °C 34784.4 hPa Calm     64 % 0 mm 0.0 W/m2 CLR
20:30 -8.2 °C -12.1 °C 34784.4 hPa Calm     64 % 0 mm 0.0 W/m2 CLR
20:35 -8.2 °C -11.9 °C 34784.4 hPa Calm     65 % 0 mm 0.0 W/m2 CLR
20:40 -8.2 °C -12.1 °C 34784.4 hPa Calm     64 % 0 mm 0.0 W/m2 CLR
20:45 -8.5 °C -12.1 °C 34784.4 hPa Calm     66 % 0 mm 0.0 W/m2 CLR
20:50 -8.5 °C -11.9 °C 34784.4 hPa Calm     67 % 0 mm 0.0 W/m2 CLR
20:55 -8.5 °C -11.9 °C 34784.4 hPa Calm     67 % 0 mm 0.0 W/m2 CLR
21:00 -8.8 °C -12.2 °C 34784.4 hPa Calm     67 % 0 mm 0.0 W/m2 CLR
21:05 -8.8 °C -12 °C 34784.4 hPa Calm     69 % 0 mm 0.0 W/m2 CLR
21:10 -9.1 °C -12.3 °C 34784.4 hPa Calm     69 % 0 mm 0.0 W/m2 CLR
21:15 -9.4 °C -12.4 °C 34784.4 hPa Calm     70 % 0 mm 0.0 W/m2 CLR
21:20 -9.4 °C -12.3 °C 34784.4 hPa Calm     71 % 0 mm 0.0 W/m2 CLR
21:25 -9.8 °C -12.6 °C 34797.9 hPa Calm     72 % 0 mm 0.0 W/m2 CLR
21:30 -9.8 °C -12.6 °C 34797.9 hPa Calm     72 % 0 mm 0.0 W/m2 CLR
21:35 -9.8 °C -12.6 °C 34797.9 hPa Calm     72 % 0 mm 0.0 W/m2 CLR
21:40 -10.1 °C -12.8 °C 34797.9 hPa Calm     72 % 0 mm 0.0 W/m2 CLR
21:45 -9.8 °C -12.3 °C 34797.9 hPa Calm     74 % 0 mm 0.0 W/m2 CLR
21:50 -9.8 °C -12.3 °C 34797.9 hPa Calm     74 % 0 mm 0.0 W/m2 CLR
21:55 -9.8 °C -12.3 °C 34797.9 hPa Calm     74 % 0 mm 0.0 W/m2 CLR
22:00 -9.8 °C -12.3 °C 34797.9 hPa Calm     74 % 0 mm 0.0 W/m2 CLR
22:05 -9.8 °C -12.3 °C 34797.9 hPa Calm     74 % 0 mm 0.0 W/m2 CLR
22:11 -9.8 °C -12.4 °C 34797.9 hPa Calm     73 % 0 mm 0.0 W/m2 CLR
22:16 -10.1 °C -12.6 °C 34797.9 hPa Calm     74 % 0 mm 0.0 W/m2 CLR
22:26 -10.1 °C -12.4 °C 34797.9 hPa Calm     75 % 0 mm 0.0 W/m2 CLR
22:31 -9.8 °C -12.2 °C 34808.1 hPa Calm     75 % 0 mm 0.0 W/m2 CLR
22:36 -9.8 °C -12.1 °C 34808.1 hPa Calm     76 % 0 mm 0.0 W/m2 CLR
22:41 -10.1 °C -12.4 °C 34808.1 hPa Calm     76 % 0 mm 0.0 W/m2 CLR
22:46 -10.1 °C -12.3 °C 34808.1 hPa Calm     77 % 0 mm 0.0 W/m2 CLR
22:56 -10.4 °C -12.4 °C 34808.1 hPa Calm     78 % 0 mm 0.0 W/m2 CLR
23:01 -10.4 °C -12.4 °C 34808.1 hPa Calm     78 % 0 mm 0.0 W/m2 CLR
23:06 -10.4 °C -12.4 °C 34808.1 hPa Calm     78 % 0 mm 0.0 W/m2 CLR
23:11 -10.4 °C -12.4 °C 34808.1 hPa Calm     78 % 0 mm 0.0 W/m2 CLR
23:16 -10.4 °C -12.4 °C 34808.1 hPa Calm     78 % 0 mm 0.0 W/m2 CLR
23:21 -10.7 °C -12.7 °C 34808.1 hPa Calm     78 % 0 mm 0.0 W/m2 CLR
23:26 -10.7 °C -12.7 °C 34808.1 hPa Calm     78 % 0 mm 0.0 W/m2 CLR
23:31 -11 °C -13.1 °C 34808.1 hPa Calm     78 % 0 mm 0.0 W/m2 CLR
23:36 -11.3 °C -13.2 °C 34808.1 hPa Calm     79 % 0 mm 0.0 W/m2 CLR
23:41 -11.3 °C -13.2 °C 34808.1 hPa Calm     80 % 0 mm 0.0 W/m2 CLR
23:46 -11.3 °C -13.2 °C 34808.1 hPa Calm     80 % 0 mm 0.0 W/m2 CLR
23:52 -11.6 °C -13.4 °C 34808.1 hPa Calm     80 % 0 mm 0.0 W/m2 CLR
23:57 -11.3 °C -13.1 °C 34808.1 hPa Calm     81 % 0 mm 0.0 W/m2 CLR
Lo Temps de Massalio
Compliments of Weather Underground - 1.25 mb